createdAt,value
2017-07-06T00:00:21.539Z,13.00
2017-07-06T00:02:48.515Z,12.90
2017-07-06T00:05:15.481Z,13.00
2017-07-06T00:07:42.466Z,13.00
2017-07-06T00:10:09.428Z,13.00
2017-07-06T00:12:37.163Z,12.90
2017-07-06T00:15:04.112Z,12.90
2017-07-06T00:17:31.092Z,12.90
2017-07-06T00:19:58.793Z,12.60
2017-07-06T00:22:25.772Z,12.60
2017-07-06T00:24:52.710Z,12.70
2017-07-06T00:27:19.716Z,12.70
2017-07-06T00:29:46.784Z,12.60
2017-07-06T00:32:13.791Z,12.80
2017-07-06T00:34:41.556Z,12.60
2017-07-06T00:37:08.507Z,12.50
2017-07-06T00:39:35.492Z,12.50
2017-07-06T00:42:02.442Z,12.40
2017-07-06T00:44:29.449Z,12.60
2017-07-06T00:46:56.401Z,12.50
2017-07-06T00:49:23.380Z,12.40
2017-07-06T00:51:50.344Z,12.40
2017-07-06T00:54:17.340Z,12.60
2017-07-06T00:56:44.297Z,12.40
2017-07-06T00:59:11.280Z,12.40
2017-07-06T01:01:38.241Z,12.30
2017-07-06T01:04:05.998Z,12.30
2017-07-06T01:06:32.949Z,12.30
2017-07-06T01:09:00.698Z,12.30
2017-07-06T01:11:27.634Z,12.30
2017-07-06T01:13:54.619Z,12.40
2017-07-06T01:16:21.601Z,12.20
2017-07-06T01:18:48.565Z,12.20
2017-07-06T01:21:15.546Z,12.10
2017-07-06T01:23:44.284Z,11.90
2017-07-06T01:26:11.250Z,11.90
2017-07-06T01:28:38.203Z,11.80
2017-07-06T01:31:05.220Z,11.80
2017-07-06T01:33:32.244Z,12.00
2017-07-06T01:35:59.216Z,12.00
2017-07-06T01:38:26.243Z,12.00
2017-07-06T01:40:53.224Z,12.30
2017-07-06T01:43:20.181Z,12.30
2017-07-06T01:45:47.143Z,12.00
2017-07-06T01:48:15.821Z,11.90
2017-07-06T01:50:43.623Z,12.00
2017-07-06T01:53:11.513Z,12.00
2017-07-06T01:55:38.711Z,12.10
2017-07-06T01:58:06.477Z,12.00
2017-07-06T02:00:35.216Z,12.00
2017-07-06T02:03:02.208Z,12.00
2017-07-06T02:05:30.935Z,11.90
2017-07-06T02:07:58.917Z,11.90
2017-07-06T02:10:25.862Z,11.80
2017-07-06T02:12:52.835Z,11.90
2017-07-06T02:15:20.764Z,12.00
2017-07-06T02:17:48.762Z,11.70
2017-07-06T02:20:15.707Z,11.60
2017-07-06T02:22:43.672Z,11.60
2017-07-06T02:25:10.624Z,11.70
2017-07-06T02:27:37.616Z,11.70
2017-07-06T02:30:04.575Z,11.60
2017-07-06T02:32:32.031Z,11.50
2017-07-06T02:34:58.979Z,11.60
2017-07-06T02:37:26.894Z,11.50
2017-07-06T02:39:54.820Z,11.50
2017-07-06T02:42:21.767Z,11.50
2017-07-06T02:44:49.668Z,11.40
2017-07-06T02:47:17.222Z,11.40
2017-07-06T02:49:44.222Z,11.50
2017-07-06T02:52:11.174Z,11.60
2017-07-06T02:54:40.081Z,11.50
2017-07-06T02:57:07.055Z,11.50
2017-07-06T02:59:34.995Z,11.50
2017-07-06T03:02:01.944Z,11.40
2017-07-06T03:04:28.920Z,11.40
2017-07-06T03:06:56.646Z,11.40
2017-07-06T03:09:23.661Z,11.30
2017-07-06T03:11:50.621Z,11.40
2017-07-06T03:14:17.590Z,11.30
2017-07-06T03:16:44.535Z,11.30
2017-07-06T03:19:11.506Z,11.50
2017-07-06T03:21:39.233Z,11.50
2017-07-06T03:24:06.221Z,11.50
2017-07-06T03:26:33.940Z,11.50
2017-07-06T03:29:00.927Z,11.50
2017-07-06T03:31:28.648Z,11.60
2017-07-06T03:33:55.637Z,11.60
2017-07-06T03:36:23.370Z,11.70
2017-07-06T03:38:50.399Z,11.70
2017-07-06T03:41:17.357Z,11.70
2017-07-06T03:43:44.340Z,11.70
2017-07-06T03:46:13.067Z,11.90
2017-07-06T03:48:40.049Z,11.90
2017-07-06T03:51:07.019Z,11.90
2017-07-06T03:53:34.755Z,12.00
2017-07-06T03:56:01.745Z,12.00
2017-07-06T03:58:28.701Z,12.00
2017-07-06T04:00:56.631Z,12.20
2017-07-06T04:03:24.382Z,12.20
2017-07-06T04:05:51.336Z,12.20
2017-07-06T04:08:19.995Z,12.50
2017-07-06T04:10:46.957Z,12.40
2017-07-06T04:13:13.961Z,12.60
2017-07-06T04:15:40.917Z,12.50
2017-07-06T04:18:07.863Z,12.50
2017-07-06T04:20:34.853Z,12.50
2017-07-06T04:23:01.829Z,12.70
2017-07-06T04:25:28.799Z,12.70
2017-07-06T04:27:56.790Z,12.90
2017-07-06T04:30:23.772Z,12.90
2017-07-06T04:32:51.489Z,13.10
2017-07-06T04:35:18.473Z,13.10
2017-07-06T04:37:46.222Z,13.30
2017-07-06T04:40:13.209Z,13.20
2017-07-06T04:42:40.169Z,13.40
2017-07-06T04:45:07.153Z,13.40
2017-07-06T04:47:34.134Z,13.40
2017-07-06T04:50:01.123Z,13.50
2017-07-06T04:52:28.081Z,13.50
2017-07-06T04:54:55.070Z,13.60
2017-07-06T04:57:22.018Z,13.60
2017-07-06T04:59:49.935Z,13.60
2017-07-06T05:02:16.899Z,13.60
2017-07-06T05:04:43.904Z,13.80
2017-07-06T05:07:10.865Z,13.80
2017-07-06T05:09:37.850Z,13.80
2017-07-06T05:12:04.826Z,13.80
2017-07-06T05:14:31.823Z,14.00
2017-07-06T05:16:59.697Z,14.00
2017-07-06T05:19:28.344Z,13.90
2017-07-06T05:21:56.344Z,13.90
2017-07-06T05:24:23.301Z,13.90
2017-07-06T05:26:51.069Z,14.30
2017-07-06T05:29:18.785Z,14.30
2017-07-06T05:31:45.744Z,14.30
2017-07-06T05:34:12.731Z,14.40
2017-07-06T05:36:39.690Z,14.50
2017-07-06T05:39:06.678Z,14.90
2017-07-06T05:41:33.636Z,15.00
2017-07-06T05:44:01.390Z,14.70
2017-07-06T05:46:28.355Z,14.60
2017-07-06T05:48:56.297Z,14.70
2017-07-06T05:51:24.025Z,14.70
2017-07-06T05:53:51.029Z,14.70
2017-07-06T05:56:18.045Z,14.70
2017-07-06T05:58:45.005Z,14.90
2017-07-06T06:01:11.989Z,15.00
2017-07-06T06:03:39.715Z,14.90
2017-07-06T06:06:06.706Z,14.90
2017-07-06T06:08:34.646Z,15.00
2017-07-06T06:11:02.545Z,14.90
2017-07-06T06:13:30.361Z,15.10
2017-07-06T06:15:57.350Z,15.10
2017-07-06T06:18:24.314Z,15.20
2017-07-06T06:20:52.062Z,15.40
2017-07-06T06:23:19.039Z,15.40
2017-07-06T06:25:46.881Z,15.60
2017-07-06T06:28:13.845Z,15.60
2017-07-06T06:30:41.599Z,15.90
2017-07-06T06:33:08.562Z,15.90
2017-07-06T06:35:36.303Z,15.80
2017-07-06T06:38:03.264Z,15.80
2017-07-06T06:40:30.242Z,15.60
2017-07-06T06:42:57.200Z,15.40
2017-07-06T06:45:24.193Z,15.70
2017-07-06T06:47:51.164Z,16.00
2017-07-06T06:50:19.158Z,16.10
2017-07-06T06:52:46.106Z,16.00
2017-07-06T06:55:13.865Z,16.00
2017-07-06T06:57:41.588Z,15.90
2017-07-06T07:00:08.558Z,15.90
2017-07-06T07:02:36.305Z,15.70
2017-07-06T07:05:03.265Z,15.70
2017-07-06T07:07:30.270Z,16.10
2017-07-06T07:09:57.237Z,16.30
2017-07-06T07:12:24.253Z,16.40
2017-07-06T07:14:51.216Z,16.60
2017-07-06T07:17:18.188Z,16.70
2017-07-06T07:19:45.919Z,16.90
2017-07-06T07:22:14.087Z,16.90
2017-07-06T07:24:41.807Z,17.20
2017-07-06T07:27:11.485Z,17.20
2017-07-06T07:29:39.454Z,17.20
2017-07-06T07:32:06.434Z,17.00
2017-07-06T07:34:34.176Z,17.00
2017-07-06T07:37:01.139Z,16.90
2017-07-06T07:39:28.145Z,16.50
2017-07-06T07:41:56.111Z,16.40
2017-07-06T07:44:23.054Z,16.50
2017-07-06T07:46:50.805Z,16.50
2017-07-06T07:49:19.569Z,16.40
2017-07-06T07:51:46.557Z,16.40
2017-07-06T07:54:14.274Z,16.60
2017-07-06T07:56:41.257Z,16.60
2017-07-06T07:59:08.218Z,16.70
2017-07-06T08:01:35.210Z,16.80
2017-07-06T08:04:02.181Z,17.00
2017-07-06T08:06:29.185Z,16.80
2017-07-06T08:08:57.149Z,17.10
2017-07-06T08:11:24.113Z,17.30
2017-07-06T08:13:51.886Z,17.60
2017-07-06T08:16:18.861Z,17.60
2017-07-06T08:18:45.845Z,17.80
2017-07-06T08:21:13.794Z,18.10
2017-07-06T08:23:40.795Z,18.00
2017-07-06T08:26:07.745Z,18.20
2017-07-06T08:28:34.718Z,17.80
2017-07-06T08:31:01.703Z,17.60
2017-07-06T08:33:28.705Z,17.30
2017-07-06T08:35:55.675Z,17.30
2017-07-06T08:38:23.401Z,17.40
2017-07-06T08:40:50.393Z,17.30
2017-07-06T08:43:18.137Z,17.80
2017-07-06T08:45:45.122Z,17.70
2017-07-06T08:48:12.085Z,18.00
2017-07-06T08:50:39.837Z,17.90
2017-07-06T08:53:07.586Z,17.90
2017-07-06T08:55:34.838Z,17.90
2017-07-06T08:58:02.805Z,17.90
2017-07-06T09:00:29.752Z,17.80
2017-07-06T09:02:56.749Z,17.90
2017-07-06T09:05:24.052Z,17.90
2017-07-06T09:07:51.025Z,18.10
2017-07-06T09:10:19.772Z,18.20
2017-07-06T09:12:46.744Z,18.10
2017-07-06T09:15:13.706Z,18.30
2017-07-06T09:17:41.470Z,18.20
2017-07-06T09:20:10.218Z,18.30
2017-07-06T09:22:37.220Z,18.20
2017-07-06T09:25:04.175Z,18.30
2017-07-06T09:27:32.194Z,18.20
2017-07-06T09:29:59.170Z,18.20
2017-07-06T09:32:26.208Z,18.30
2017-07-06T09:34:53.943Z,18.30
2017-07-06T09:37:22.957Z,18.30
2017-07-06T09:39:50.689Z,18.50
2017-07-06T09:42:17.681Z,18.60
2017-07-06T09:44:45.418Z,19.00
2017-07-06T09:47:13.419Z,19.00
2017-07-06T09:49:40.385Z,18.80
2017-07-06T09:52:09.361Z,19.00
2017-07-06T09:54:36.315Z,18.90
2017-07-06T09:57:03.294Z,18.80
2017-07-06T09:59:30.275Z,19.00
2017-07-06T10:01:57.990Z,19.80
2017-07-06T10:04:26.917Z,19.80
2017-07-06T10:06:54.858Z,20.00
2017-07-06T10:09:21.852Z,19.90
2017-07-06T10:11:51.540Z,19.70
2017-07-06T10:14:18.640Z,19.60
2017-07-06T10:16:45.609Z,19.50
2017-07-06T10:19:13.703Z,19.30
2017-07-06T10:21:41.627Z,19.60
2017-07-06T10:24:08.609Z,19.60
2017-07-06T10:26:35.612Z,19.50
2017-07-06T10:29:02.580Z,19.60
2017-07-06T10:31:29.582Z,19.40
2017-07-06T10:33:56.545Z,19.60
2017-07-06T10:36:23.508Z,19.90
2017-07-06T10:38:50.513Z,19.90
2017-07-06T10:41:17.473Z,19.50
2017-07-06T10:43:44.478Z,19.50
2017-07-06T10:46:12.234Z,19.40
2017-07-06T10:48:39.403Z,19.40
2017-07-06T10:51:06.424Z,19.50
2017-07-06T10:53:33.417Z,19.50
2017-07-06T10:56:00.404Z,19.50
2017-07-06T10:58:27.388Z,19.60
2017-07-06T11:00:55.126Z,19.70
2017-07-06T11:03:22.119Z,19.70
2017-07-06T11:05:49.093Z,19.70
2017-07-06T11:08:17.061Z,20.00
2017-07-06T11:10:44.804Z,20.20
2017-07-06T11:13:12.784Z,20.10
2017-07-06T11:15:39.793Z,20.20
2017-07-06T11:18:06.797Z,20.20
2017-07-06T11:20:35.797Z,20.10
2017-07-06T11:23:09.484Z,20.10
2017-07-06T11:25:36.822Z,20.10
2017-07-06T11:28:03.785Z,20.00
2017-07-06T11:30:30.769Z,20.20
2017-07-06T11:32:59.521Z,20.20
2017-07-06T11:35:27.499Z,20.20
2017-07-06T11:37:54.470Z,20.10
2017-07-06T11:40:22.413Z,20.30
2017-07-06T11:42:49.372Z,20.30
2017-07-06T11:45:17.337Z,20.00
2017-07-06T11:47:44.416Z,19.60
2017-07-06T11:50:12.340Z,19.80
2017-07-06T11:52:39.338Z,20.10
2017-07-06T11:55:08.272Z,20.20
2017-07-06T11:57:35.285Z,20.20
2017-07-06T12:00:03.173Z,20.10
2017-07-06T12:02:30.134Z,20.10
2017-07-06T12:04:58.121Z,20.50
2017-07-06T12:07:25.094Z,20.30
2017-07-06T12:09:52.097Z,20.40
2017-07-06T12:12:19.055Z,20.20
2017-07-06T12:14:46.041Z,20.40
2017-07-06T12:17:14.975Z,20.50
2017-07-06T12:19:42.129Z,20.60
2017-07-06T12:22:09.090Z,20.40
2017-07-06T12:24:36.049Z,20.40
2017-07-06T12:27:03.045Z,20.50
2017-07-06T12:29:31.016Z,20.70
2017-07-06T12:31:58.011Z,20.80
2017-07-06T12:34:24.966Z,20.90
2017-07-06T12:36:51.956Z,20.80
2017-07-06T12:39:18.922Z,20.80
2017-07-06T12:41:45.918Z,21.10
2017-07-06T12:44:13.808Z,21.10
2017-07-06T12:46:40.809Z,21.20
2017-07-06T12:49:09.776Z,21.20
2017-07-06T12:51:36.794Z,21.30
2017-07-06T12:54:04.160Z,21.40
2017-07-06T12:56:32.115Z,21.50
2017-07-06T12:58:59.085Z,21.20
2017-07-06T13:01:26.070Z,21.20
2017-07-06T13:03:53.053Z,21.30
2017-07-06T13:06:20.013Z,21.00
2017-07-06T13:08:47.006Z,21.30
2017-07-06T13:11:14.029Z,21.50
2017-07-06T13:13:41.017Z,21.50
2017-07-06T13:16:07.976Z,21.50
2017-07-06T13:18:35.978Z,21.70
2017-07-06T13:21:02.933Z,21.60
2017-07-06T13:23:30.687Z,21.40
2017-07-06T13:25:57.687Z,21.40
2017-07-06T13:28:24.693Z,21.60
2017-07-06T13:30:52.425Z,23.30
2017-07-06T13:33:19.390Z,23.30
2017-07-06T13:35:46.407Z,27.10
2017-07-06T13:38:15.382Z,28.80
2017-07-06T13:40:42.398Z,30.50
2017-07-06T13:43:09.353Z,30.90
2017-07-06T13:45:36.353Z,31.60
2017-07-06T13:48:03.349Z,32.40
2017-07-06T13:50:31.305Z,32.40
2017-07-06T13:52:59.236Z,33.10
2017-07-06T13:55:26.993Z,32.70
2017-07-06T13:57:53.978Z,32.70
2017-07-06T14:00:20.998Z,33.20
2017-07-06T14:02:48.744Z,33.20
2017-07-06T14:05:16.483Z,33.20
2017-07-06T14:07:43.464Z,33.20
2017-07-06T14:10:12.395Z,33.60
2017-07-06T14:12:39.569Z,33.80
2017-07-06T14:15:07.573Z,33.60
2017-07-06T14:17:34.533Z,33.10
2017-07-06T14:20:01.520Z,33.20
2017-07-06T14:22:28.519Z,32.70
2017-07-06T14:24:56.431Z,33.00
2017-07-06T14:27:23.404Z,33.40
2017-07-06T14:29:50.365Z,32.30
2017-07-06T14:32:17.484Z,33.10
2017-07-06T14:34:44.453Z,33.40
2017-07-06T14:37:11.413Z,33.90
2017-07-06T14:39:39.354Z,33.90
2017-07-06T14:42:06.318Z,34.10
2017-07-06T14:44:33.310Z,33.30
2017-07-06T14:47:00.294Z,33.00
2017-07-06T14:49:27.278Z,32.10
2017-07-06T14:51:55.042Z,32.30
2017-07-06T14:54:22.800Z,32.40
2017-07-06T14:56:49.773Z,32.40
2017-07-06T14:59:16.961Z,32.50
2017-07-06T15:01:43.972Z,33.10
2017-07-06T15:04:10.940Z,33.00
2017-07-06T15:06:38.224Z,33.30
2017-07-06T15:09:05.185Z,33.40
2017-07-06T15:11:32.913Z,33.40
2017-07-06T15:14:00.888Z,33.40
2017-07-06T15:16:27.873Z,33.70
2017-07-06T15:18:54.874Z,33.10
2017-07-06T15:21:21.883Z,32.40
2017-07-06T15:23:48.841Z,32.20
2017-07-06T15:26:15.827Z,31.70
2017-07-06T15:28:42.766Z,32.40
2017-07-06T15:31:09.714Z,32.20
2017-07-06T15:33:37.658Z,31.90
2017-07-06T15:36:04.613Z,31.60
2017-07-06T15:38:31.577Z,31.40
2017-07-06T15:40:58.566Z,30.60
2017-07-06T15:43:25.558Z,30.50
2017-07-06T15:45:52.517Z,30.50
2017-07-06T15:48:19.500Z,30.60
2017-07-06T15:50:47.341Z,31.20
2017-07-06T15:53:15.098Z,30.90
2017-07-06T15:55:42.842Z,30.10
2017-07-06T15:58:09.849Z,30.10
2017-07-06T16:00:37.847Z,29.60
2017-07-06T16:03:04.805Z,30.40
2017-07-06T16:05:31.797Z,29.80
2017-07-06T16:07:58.745Z,29.90
2017-07-06T16:10:26.225Z,30.60
2017-07-06T16:12:53.911Z,30.30
2017-07-06T16:15:21.900Z,29.30
2017-07-06T16:17:49.825Z,29.00
2017-07-06T16:20:16.798Z,29.20
2017-07-06T16:22:43.813Z,29.60
2017-07-06T16:25:10.773Z,29.60
2017-07-06T16:27:38.790Z,29.50
2017-07-06T16:30:06.696Z,29.20
2017-07-06T16:32:33.657Z,29.60
2017-07-06T16:35:00.660Z,29.70
2017-07-06T16:37:27.617Z,28.70
2017-07-06T16:39:54.614Z,28.60
2017-07-06T16:42:21.696Z,28.30
2017-07-06T16:44:48.666Z,28.70
2017-07-06T16:47:15.621Z,29.00
2017-07-06T16:49:42.623Z,28.20
2017-07-06T16:52:10.542Z,28.50
2017-07-06T16:54:37.568Z,28.90
2017-07-06T16:57:04.569Z,29.00
2017-07-06T16:59:32.505Z,28.70
2017-07-06T17:01:59.466Z,28.10
2017-07-06T17:04:26.446Z,27.90
2017-07-06T17:06:53.428Z,28.20
2017-07-06T17:09:20.384Z,28.00
2017-07-06T17:11:47.360Z,28.00
2017-07-06T17:14:14.343Z,27.90
2017-07-06T17:16:42.251Z,27.70
2017-07-06T17:19:09.203Z,27.80
2017-07-06T17:21:36.187Z,27.60
2017-07-06T17:24:03.145Z,27.20
2017-07-06T17:26:31.054Z,27.20
2017-07-06T17:28:59.012Z,26.00
2017-07-06T17:31:25.980Z,25.90
2017-07-06T17:33:52.959Z,26.00
2017-07-06T17:36:19.925Z,25.80
2017-07-06T17:38:46.920Z,25.70
2017-07-06T17:41:13.889Z,25.80
2017-07-06T17:43:40.896Z,25.70
2017-07-06T17:46:07.861Z,24.10
2017-07-06T17:48:34.865Z,22.60
2017-07-06T17:51:01.823Z,21.60
2017-07-06T17:53:28.792Z,21.10
2017-07-06T17:55:55.759Z,20.60
2017-07-06T17:58:23.494Z,20.10
2017-07-06T18:00:52.513Z,20.00
2017-07-06T18:03:20.440Z,19.90
2017-07-06T18:05:47.423Z,19.70
2017-07-06T18:08:14.386Z,19.70
2017-07-06T18:10:41.377Z,19.50
2017-07-06T18:13:08.334Z,19.40
2017-07-06T18:15:36.150Z,19.20
2017-07-06T18:18:03.113Z,19.20
2017-07-06T18:20:31.152Z,19.10
2017-07-06T18:22:58.149Z,19.10
2017-07-06T18:25:25.157Z,19.10
2017-07-06T18:27:52.135Z,19.00
2017-07-06T18:30:19.111Z,18.90
2017-07-06T18:32:46.843Z,18.90
2017-07-06T18:35:13.814Z,18.80
2017-07-06T18:37:41.566Z,19.00
2017-07-06T18:40:08.532Z,19.00
2017-07-06T18:42:36.302Z,18.80
2017-07-06T18:45:03.276Z,18.80
2017-07-06T18:47:30.282Z,18.70
2017-07-06T18:49:58.006Z,18.70
2017-07-06T18:52:25.002Z,18.70
2017-07-06T18:54:51.961Z,18.60
2017-07-06T18:57:18.963Z,18.60
2017-07-06T18:59:49.666Z,18.60
2017-07-06T19:02:17.404Z,18.50
2017-07-06T19:04:44.390Z,18.50
2017-07-06T19:07:11.386Z,18.40
2017-07-06T19:09:39.393Z,18.40
2017-07-06T19:12:08.152Z,18.00
2017-07-06T19:14:35.126Z,17.90
2017-07-06T19:17:02.085Z,17.80
2017-07-06T19:19:29.837Z,17.70
2017-07-06T19:21:56.798Z,17.70
2017-07-06T19:24:24.558Z,17.50
2017-07-06T19:26:51.539Z,17.50
2017-07-06T19:29:18.545Z,17.50
2017-07-06T19:31:46.278Z,17.30
2017-07-06T19:34:13.269Z,17.30
2017-07-06T19:36:41.176Z,17.30
2017-07-06T19:39:08.182Z,17.20
2017-07-06T19:41:35.144Z,17.10
2017-07-06T19:44:03.164Z,17.00
2017-07-06T19:46:30.142Z,16.90
2017-07-06T19:48:57.099Z,16.90
2017-07-06T19:51:24.080Z,17.00
2017-07-06T19:53:52.020Z,16.90
2017-07-06T19:56:19.005Z,16.70
2017-07-06T19:58:46.732Z,16.70
2017-07-06T20:01:13.717Z,16.70
2017-07-06T20:03:41.444Z,16.70
2017-07-06T20:06:09.420Z,16.70
2017-07-06T20:08:37.353Z,16.70
2017-07-06T20:11:04.317Z,16.50
2017-07-06T20:13:32.213Z,16.50
2017-07-06T20:16:00.148Z,16.60
2017-07-06T20:18:27.138Z,16.60
2017-07-06T20:20:54.868Z,16.50
2017-07-06T20:23:21.875Z,16.50
2017-07-06T20:25:48.836Z,16.50
2017-07-06T20:28:15.822Z,16.40
2017-07-06T20:30:43.571Z,16.20
2017-07-06T20:33:10.564Z,16.20
2017-07-06T20:35:37.510Z,16.30
2017-07-06T20:38:04.501Z,16.20
2017-07-06T20:40:32.281Z,16.10
2017-07-06T20:43:01.254Z,16.10
2017-07-06T20:45:29.003Z,16.10
2017-07-06T20:47:56.083Z,16.10
2017-07-06T20:50:23.872Z,16.20
2017-07-06T20:52:50.832Z,16.20
2017-07-06T20:55:17.818Z,16.00
2017-07-06T20:57:44.784Z,16.10
2017-07-06T21:00:11.764Z,16.00
2017-07-06T21:02:38.721Z,15.90
2017-07-06T21:05:06.894Z,16.00
2017-07-06T21:07:33.896Z,15.90
2017-07-06T21:10:00.884Z,15.90
2017-07-06T21:12:27.868Z,15.80
2017-07-06T21:14:55.655Z,15.90
2017-07-06T21:17:23.380Z,15.80
2017-07-06T21:19:50.341Z,15.80
2017-07-06T21:22:18.305Z,15.70
2017-07-06T21:24:45.662Z,15.70
2017-07-06T21:27:12.634Z,15.70
2017-07-06T21:29:40.350Z,15.80
2017-07-06T21:32:07.387Z,15.80
2017-07-06T21:34:34.332Z,15.90
2017-07-06T21:37:01.295Z,15.90
2017-07-06T21:39:28.244Z,15.90
2017-07-06T21:41:55.230Z,15.90
2017-07-06T21:44:22.166Z,15.80
2017-07-06T21:46:49.892Z,15.70
2017-07-06T21:49:16.884Z,15.80
2017-07-06T21:51:43.862Z,15.90
2017-07-06T21:54:10.826Z,16.00
2017-07-06T21:56:37.783Z,16.10
2017-07-06T21:59:04.770Z,16.10
2017-07-06T22:01:31.734Z,16.10
2017-07-06T22:03:58.720Z,16.10
2017-07-06T22:06:25.693Z,16.20
2017-07-06T22:08:53.634Z,16.20
2017-07-06T22:11:23.327Z,16.10
2017-07-06T22:13:50.302Z,16.10
2017-07-06T22:16:18.032Z,15.80
2017-07-06T22:18:45.020Z,15.80
2017-07-06T22:21:12.749Z,15.60
2017-07-06T22:23:39.879Z,15.60
2017-07-06T22:26:06.837Z,15.50
2017-07-06T22:28:33.782Z,15.50
2017-07-06T22:31:01.041Z,15.50
2017-07-06T22:33:27.998Z,15.50
2017-07-06T22:35:54.965Z,15.70
2017-07-06T22:38:21.953Z,15.80
2017-07-06T22:40:48.905Z,15.70
2017-07-06T22:43:15.968Z,16.00
2017-07-06T22:45:43.101Z,16.00
2017-07-06T22:48:10.077Z,15.80
2017-07-06T22:50:37.051Z,15.70
2017-07-06T22:53:04.007Z,15.70
2017-07-06T22:55:30.998Z,15.60
2017-07-06T22:57:57.957Z,15.70
2017-07-06T23:00:24.941Z,15.60
2017-07-06T23:02:51.909Z,15.60
2017-07-06T23:05:18.900Z,15.80
2017-07-06T23:07:46.631Z,16.10
2017-07-06T23:10:13.633Z,16.00
2017-07-06T23:12:40.597Z,16.10
2017-07-06T23:15:07.582Z,15.90
2017-07-06T23:17:34.545Z,16.10
2017-07-06T23:20:02.321Z,16.20
2017-07-06T23:22:30.045Z,16.30
2017-07-06T23:24:57.028Z,16.30
2017-07-06T23:27:24.760Z,16.10
2017-07-06T23:29:51.721Z,16.10
2017-07-06T23:32:19.470Z,16.00
2017-07-06T23:34:46.429Z,16.00
2017-07-06T23:37:13.437Z,16.00
2017-07-06T23:39:40.401Z,16.10
2017-07-06T23:42:07.385Z,16.00
2017-07-06T23:44:35.117Z,15.80
2017-07-06T23:47:02.113Z,15.80
2017-07-06T23:49:29.065Z,15.90
2017-07-06T23:51:56.072Z,16.00
2017-07-06T23:54:23.884Z,15.90
2017-07-06T23:56:50.865Z,15.90
2017-07-06T23:59:17.830Z,15.90
